Tarawa, Kiribati

1:24 PM GILT on July 30, 2015 (GMT +1200)
Bonriki International | | Change Station
CLOSE
Current Station
Airport
Location: Tarawa Airport,
Elevation: 13 ft
Nearby Weather Stations

Elev 13 ft 1.35 °N, 172.92 °E | Updated 24 minutes ago

Mostly Cloudy
Mostly Cloudy
84 °F
Feels Like 94 °F
N
21
Wind Variable Wind from West

Today
High -- | Low -- °F
--% Chance of Precip.
Yesterday
High -- | Low -- °F
Precip. -- in
6:29 AM 6:40 PM
Waxing Gibbous, 97% visible
Pressure 29.68 in
Visibility 6.2 miles
Clouds Few 1800 ft
Scattered Clouds 10000 ft
Mostly Cloudy 30000 ft
Heat Index 94 °F
Dew Point 77 °F
Humidity 79%
Rainfall 0.00 in
Snow Depth Not available.
UV 6 out of 12
Pollen Not available.
Air Quality Not available.
Flu Activity Not available.
METAR NGTA 300100Z 27018KT 9999 FEW018CB SCT100 BKN300 29/25 Q1005 RMK: CB3 TO W

More Conditions Fewer Conditions

Pressure 29.68 in
Visibility 6.2 miles
Clouds Few 1800 ft
Scattered Clouds 10000 ft
Mostly Cloudy 30000 ft
Heat Index 94 °F
Dew Point 77 °F
Humidity 79%
Rainfall 0.00 in
Snow Depth Not available.
UV 6 out of 12
Pollen Not available.
Air Quality Not available.
Flu Activity Not available.
METAR NGTA 300100Z 27018KT 9999 FEW018CB SCT100 BKN300 29/25 Q1005 RMK: CB3 TO W

More Conditions Fewer Conditions

10-Day Weather Forecast

×

Almanac

Astronomy

Jul. 30, 2015 Rise Set
Actual Time
Civil Twilight
Nautical Twilight
Astronomical Twilight
Moon
Length of Visible Light
Length of Day
Tomorrow will be .
, % of the Moon is Illuminated

Today's Extremes

Country Highs Country Lows

Community

WunderPhotos

Upload Photos

1,842,245 photos uploaded!

WunderBlogs® & News

Nearby

Air Quality

  Air Quality AQ Index Pollutant
Not available.

Snow Depth

Station Depth Elevation

Earthquake Activity

City Distance Mag. Time & Date
Minimum magnitude displayed is 2.5.

Coastal Water Temperatures

Place Temperature

Stations

Nearby Weather Stations

Station Location Temp. Windchill Dew Point Humidity Wind Precip. Elev Updated Type